Time;durP1;ratioP1;P1;durP2;ratioP2;P2;SDS_P1;SDS_P2;PMS_P1;PMS_P2;Temp;Humidity;BMP_temperature;BMP_pressure;BME280_temperature;BME280_humidity;BME280_pressure;Samples;Min_cycle;Max_cycle;Signal;HPM_P1;HPM_P2
2022/01/28 00:04:46;;;;;;;21.05;10.55;;;;;;;1.06;80.76;98145.78;5111983;28;20399;-71
2022/01/28 00:07:12;;;;;;;16.85;9.10;;;;;;;1.07;80.53;98150.94;5111001;28;20031;-72
2022/01/28 00:09:37;;;;;;;20.67;9.27;;;;;;;1.09;80.54;98142.63;5111593;28;20027;-71
2022/01/28 00:12:03;;;;;;;19.73;9.68;;;;;;;1.09;80.11;98121.81;5110961;28;20028;-71
2022/01/28 00:14:41;;;;;;;30.13;12.45;;;;;;;1.09;80.12;98137.22;5111394;28;20027;-71
2022/01/28 00:38:44;;;;;;;25.85;11.05;;;;;;;1.22;80.00;98130.69;5108359;28;20080;-71
2022/01/28 00:41:10;;;;;;;;;;;;;;;1.21;80.21;98127.19;5111568;28;20098;-72
2022/01/28 00:43:35;;;;;;;20.90;10.70;;;;;;;1.23;79.63;98133.13;5110748;28;20044;-71
2022/01/28 00:46:01;;;;;;;17.20;8.43;;;;;;;1.23;80.14;98132.31;5110727;28;20016;-71
2022/01/28 00:48:26;;;;;;;24.77;10.00;;;;;;;1.22;80.08;98146.88;5092046;28;20027;-71
2022/01/28 00:50:52;;;;;;;15.60;7.32;;;;;;;1.23;80.16;98156.63;5110643;28;20057;-72
2022/01/28 00:53:17;;;;;;;15.02;8.55;;;;;;;1.25;80.07;98165.31;5110625;28;20019;-71
2022/01/28 00:55:43;;;;;;;17.65;8.30;;;;;;;1.28;80.08;98162.13;5111509;28;20032;-71
2022/01/28 00:58:08;;;;;;;18.70;8.85;;;;;;;1.30;80.10;98158.13;5110388;28;20015;-71
2022/01/28 01:00:34;;;;;;;17.23;9.38;;;;;;;1.29;79.86;98172.69;5091733;28;20511;-72
2022/01/28 01:02:59;;;;;;;16.75;8.77;;;;;;;1.31;79.62;98170.56;5110332;28;20039;-72
2022/01/28 01:05:25;;;;;;;17.30;9.15;;;;;;;1.29;80.28;98169.19;5110510;28;20440;-71
2022/01/28 01:07:50;;;;;;;15.35;8.30;;;;;;;1.30;80.18;98162.72;5109841;28;20020;-71
2022/01/28 01:10:16;;;;;;;15.27;8.00;;;;;;;1.33;79.48;98167.63;5110004;28;20028;-72
2022/01/28 01:12:46;;;;;;;14.63;7.57;;;;;;;1.33;80.01;98156.81;5092342;28;20024;-72
2022/01/28 01:15:17;;;;;;;20.75;9.77;;;;;;;1.32;79.74;98147.09;5110871;28;20023;-72
2022/01/28 01:17:55;;;;;;;17.55;10.05;;;;;;;1.28;79.49;98133.22;5109755;28;20102;-71
2022/01/28 01:23:06;;;;;;;17.35;9.32;;;;;;;1.21;79.68;98147.94;5110268;28;20255;-71
2022/01/28 01:25:41;;;;;;;16.33;8.55;;;;;;;1.16;80.13;98146.00;5091102;28;20030;-71
2022/01/28 01:28:07;;;;;;;20.27;10.32;;;;;;;1.14;79.90;98142.72;5108980;28;20052;-71
2022/01/28 01:30:39;;;;;;;18.67;10.02;;;;;;;1.13;79.93;98143.78;5090752;28;20487;-71
2022/01/28 01:33:04;;;;;;;16.70;9.73;;;;;;;1.10;80.46;98134.25;5091257;28;20020;-71
2022/01/28 01:35:30;;;;;;;19.08;9.80;;;;;;;1.09;80.61;98131.81;5110460;28;20031;-70
2022/01/28 01:37:55;;;;;;;18.40;9.50;;;;;;;1.07;80.54;98132.03;5109488;28;20027;-71
2022/01/28 01:40:27;;;;;;;15.88;9.88;;;;;;;1.08;80.45;98130.16;5110013;28;20099;-71
2022/01/28 01:43:06;;;;;;;17.95;9.02;;;;;;;1.08;80.09;98127.47;5109391;28;20044;-71
2022/01/28 01:53:27;;;;;;;15.98;9.13;;;;;;;1.07;80.09;98121.22;5109535;28;20789;-71
2022/01/28 01:55:52;;;;;;;17.15;9.30;;;;;;;1.04;80.17;98117.16;5111180;27;20032;-71
2022/01/28 01:58:24;;;;;;;16.10;9.10;;;;;;;1.04;79.96;98111.75;5089516;28;20030;-71
2022/01/28 02:00:49;;;;;;;15.43;8.88;;;;;;;1.06;80.06;98116.09;5108759;28;20106;-71
2022/01/28 02:03:15;;;;;;;16.85;9.73;;;;;;;1.01;79.92;98112.22;5093096;28;20750;-71
2022/01/28 02:05:40;;;;;;;16.95;9.23;;;;;;;0.96;79.59;98119.44;5109453;28;20157;-69
2022/01/28 02:08:06;;;;;;;16.63;8.27;;;;;;;0.94;79.96;98129.66;5109137;28;20036;-69
2022/01/28 02:10:35;;;;;;;15.45;8.70;;;;;;;0.92;80.49;98121.78;5109851;28;20045;-70
2022/01/28 02:13:00;;;;;;;12.82;7.95;;;;;;;0.92;79.87;98134.47;5109353;28;20055;-71
2022/01/28 02:15:26;;;;;;;13.57;9.05;;;;;;;0.92;79.85;98132.56;5109771;28;20498;-71
2022/01/28 02:17:51;;;;;;;14.40;8.55;;;;;;;0.90;80.19;98137.41;5108924;28;20472;-71
2022/01/28 02:20:32;;;;;;;13.60;8.88;;;;;;;0.87;80.74;98152.22;5109521;28;20020;-71
2022/01/28 02:22:57;;;;;;;17.10;9.82;;;;;;;0.89;80.92;98160.06;5109326;28;20020;-71
2022/01/28 02:25:33;;;;;;;16.60;9.32;;;;;;;0.89;80.38;98141.16;5109536;28;20015;-70
2022/01/28 02:28:05;;;;;;;16.60;9.52;;;;;;;0.88;80.48;98145.75;5109024;28;20467;-71
2022/01/28 02:30:31;;;;;;;14.18;8.68;;;;;;;0.89;81.46;98135.75;5109583;28;20038;-71
2022/01/28 02:33:02;;;;;;;16.08;7.85;;;;;;;0.92;81.04;98143.38;5109151;28;20098;-70
2022/01/28 02:35:28;;;;;;;13.35;7.63;;;;;;;0.94;80.75;98141.25;5109464;28;20762;-70
2022/01/28 02:37:53;;;;;;;12.73;7.30;;;;;;;0.96;80.68;98138.34;5108938;28;20031;-70
2022/01/28 02:40:19;;;;;;;14.38;6.80;;;;;;;0.97;80.93;98134.56;5109203;28;20481;-71
2022/01/28 02:45:35;;;;;;;7.78;4.13;;;;;;;1.06;80.50;98146.59;5109324;28;20030;-70
2022/01/28 02:48:04;;;;;;;6.07;3.47;;;;;;;1.13;80.21;98154.56;5108539;28;20143;-70
2022/01/28 02:50:38;;;;;;;6.65;3.72;;;;;;;1.16;80.40;98152.19;5108957;28;20030;-70
2022/01/28 02:53:09;;;;;;;5.40;3.00;;;;;;;1.20;79.45;98160.66;5091297;28;20502;-70
2022/01/28 02:55:39;;;;;;;4.93;2.78;;;;;;;1.25;79.25;98149.13;5108992;28;20032;-70
2022/01/28 02:58:20;;;;;;;3.72;2.47;;;;;;;1.28;78.97;98143.22;5108691;28;20027;-70
2022/01/28 03:00:47;;;;;;;4.40;2.45;;;;;;;1.33;78.68;98141.41;5108337;28;20055;-71
2022/01/28 03:03:14;;;;;;;2.45;2.00;;;;;;;1.36;77.98;98133.88;5108750;28;20081;-70
2022/01/28 03:05:40;;;;;;;3.35;2.33;;;;;;;1.40;77.92;98135.03;5090110;28;20024;-71
2022/01/28 03:08:06;;;;;;;3.72;2.15;;;;;;;1.39;77.94;98131.53;5089674;28;20028;-70
2022/01/28 03:13:13;;;;;;;2.50;1.92;;;;;;;1.44;77.72;98134.31;5108438;28;20475;-70
2022/01/28 03:15:40;;;;;;;3.97;1.92;;;;;;;1.44;77.14;98125.38;5106743;28;20020;-71
2022/01/28 03:18:13;;;;;;;3.15;1.83;;;;;;;1.46;77.28;98124.06;5107792;28;20020;-70
2022/01/28 03:20:43;;;;;;;3.70;1.95;;;;;;;1.45;77.03;98133.22;5108745;28;20023;-71
2022/01/28 03:23:10;;;;;;;3.67;1.92;;;;;;;1.48;77.24;98127.34;5090320;28;20047;-71
2022/01/28 03:25:37;;;;;;;2.90;2.00;;;;;;;1.53;76.96;98123.09;5108153;28;20918;-69
2022/01/28 03:28:03;;;;;;;2.67;1.67;;;;;;;1.58;76.02;98129.41;5106929;28;20047;-69
2022/01/28 03:30:28;;;;;;;2.50;1.70;;;;;;;1.61;75.47;98125.38;5108594;28;20117;-71
2022/01/28 03:32:54;;;;;;;3.05;1.90;;;;;;;1.66;75.21;98113.81;5108741;28;20051;-71
2022/01/28 03:35:20;;;;;;;3.05;1.60;;;;;;;1.67;74.34;98120.88;5108473;28;20016;-71
2022/01/28 03:37:46;;;;;;;3.00;1.63;;;;;;;1.69;74.61;98126.84;5107878;28;20023;-70
2022/01/28 03:40:12;;;;;;;3.33;1.70;;;;;;;1.73;74.26;98111.78;5108477;28;20537;-69
2022/01/28 03:42:37;;;;;;;2.92;1.58;;;;;;;1.73;73.97;98118.03;5108118;28;20032;-70
2022/01/28 03:45:05;;;;;;;2.63;1.80;;;;;;;1.74;73.58;98110.72;5108407;28;20447;-70
2022/01/28 03:47:31;;;;;;;4.00;1.80;;;;;;;1.78;73.49;98119.97;5107441;28;20368;-70
2022/01/28 03:49:56;;;;;;;4.03;1.60;;;;;;;1.78;73.78;98115.41;5108452;28;20085;-70
2022/01/28 03:52:22;;;;;;;4.97;2.00;;;;;;;1.83;73.54;98114.66;5090356;28;20019;-69
2022/01/28 03:54:48;;;;;;;3.92;1.60;;;;;;;1.86;72.78;98129.53;5108358;28;20130;-70
2022/01/28 03:57:13;;;;;;;3.75;1.60;;;;;;;1.93;72.68;98130.19;5106146;28;20569;-70
2022/01/28 03:59:39;;;;;;;4.43;1.38;;;;;;;1.95;72.54;98129.97;5106883;28;20019;-70
2022/01/28 04:02:06;;;;;;;4.10;1.50;;;;;;;1.93;72.61;98136.44;5088487;28;20028;-70
2022/01/28 04:12:40;;;;;;;3.65;1.13;;;;;;;1.87;71.45;98121.19;5110022;28;20051;-70
2022/01/28 04:17:32;;;;;;;12.75;5.47;;;;;;;1.99;69.54;98144.63;5111772;28;20565;-70
2022/01/28 04:19:58;;;;;;;3.50;1.40;;;;;;;2.02;70.73;98174.69;5109767;27;20034;-70
2022/01/28 04:22:25;;;;;;;3.80;1.25;;;;;;;2.10;70.01;98137.47;5109248;28;20463;-70
2022/01/28 04:24:50;;;;;;;3.83;1.60;;;;;;;2.10;69.68;98145.59;5093043;28;20034;-70
2022/01/28 04:27:15;;;;;;;2.70;0.90;;;;;;;2.08;69.97;98126.88;5092510;28;20023;-70
2022/01/28 04:29:41;;;;;;;4.18;1.40;;;;;;;2.06;69.74;98154.19;5111532;28;20028;-70
2022/01/28 04:32:07;;;;;;;2.58;1.20;;;;;;;2.04;71.42;98159.03;5111634;28;20498;-70
2022/01/28 04:34:33;;;;;;;5.03;1.33;;;;;;;1.93;71.67;98162.66;5111601;28;20020;-70
2022/01/28 04:37:08;;;;;;;2.80;1.38;;;;;;;1.83;72.92;98162.50;5110870;28;20020;-70
2022/01/28 04:39:47;;;;;;;3.35;1.25;;;;;;;1.75;74.22;98148.34;5111275;28;20024;-70
2022/01/28 04:42:43;;;;;;;2.42;1.00;;;;;;;1.70;74.74;98172.59;5111326;28;20028;-70
2022/01/28 04:47:46;;;;;;;2.30;1.23;;;;;;;1.47;76.86;98176.25;5110720;28;20483;-70
2022/01/28 04:55:47;;;;;;;4.22;1.40;;;;;;;1.17;79.20;98170.03;5037338;28;20021;-70
2022/01/28 04:58:28;;;;;;;4.43;1.45;;;;;;;1.08;80.11;98165.28;5110141;28;20023;-70
2022/01/28 05:03:37;;;;;;;2.33;1.00;;;;;;;1.00;80.26;98174.59;5111133;28;20023;-71
2022/01/28 05:24:30;;;;;;;5.95;2.35;;;;;;;0.66;83.74;98194.19;5110074;28;20035;-70
2022/01/28 05:27:01;;;;;;;8.82;2.30;;;;;;;0.64;83.17;98201.69;5108646;28;20082;-70
2022/01/28 05:29:26;;;;;;;9.23;3.10;;;;;;;0.62;83.40;98192.16;5092487;28;20031;-70
2022/01/28 05:31:52;;;;;;;8.57;2.60;;;;;;;0.61;83.67;98195.97;5110197;28;20088;-70
2022/01/28 05:34:18;;;;;;;5.20;1.77;;;;;;;0.57;84.12;98199.13;5110385;28;20038;-70
2022/01/28 05:36:43;;;;;;;4.80;1.50;;;;;;;0.56;83.83;98202.88;5109853;28;20049;-70
2022/01/28 05:39:09;;;;;;;7.07;2.20;;;;;;;0.53;84.19;98199.81;5091956;28;20019;-70
2022/01/28 05:41:34;;;;;;;5.28;1.95;;;;;;;0.43;84.71;98206.63;5092289;28;20032;-70
2022/01/28 05:44:02;;;;;;;7.55;2.42;;;;;;;0.36;84.53;98205.13;5110200;28;20126;-70
2022/01/28 05:46:29;;;;;;;6.32;2.00;;;;;;;0.35;84.91;98219.66;5109754;28;20032;-70
2022/01/28 05:48:56;;;;;;;5.30;2.30;;;;;;;0.31;85.86;98207.69;5091630;28;20123;-70
2022/01/28 05:51:21;;;;;;;4.00;1.90;;;;;;;0.27;85.12;98221.66;5090611;28;20028;-70
2022/01/28 05:53:47;;;;;;;8.70;2.38;;;;;;;0.25;85.15;98218.38;5088812;28;20042;-70
2022/01/28 05:56:12;;;;;;;5.38;1.77;;;;;;;0.26;85.68;98220.00;5110420;27;20032;-70
2022/01/28 05:58:37;;;;;;;4.60;1.63;;;;;;;0.28;85.76;98217.91;5109749;28;20671;-70
2022/01/28 06:01:03;;;;;;;5.25;1.33;;;;;;;0.32;86.36;98229.06;5091505;28;20106;-70
2022/01/28 06:03:28;;;;;;;4.57;1.42;;;;;;;0.36;86.48;98221.31;5110544;28;20043;-70
2022/01/28 06:05:54;;;;;;;3.92;1.40;;;;;;;0.42;86.55;98231.16;5091745;28;20073;-69
2022/01/28 06:08:19;;;;;;;2.88;1.65;;;;;;;0.39;86.37;98216.28;5108578;28;20138;-70
2022/01/28 06:10:44;;;;;;;4.05;1.40;;;;;;;0.43;86.43;98222.00;5111179;27;20075;-70
2022/01/28 06:13:11;;;;;;;8.55;2.20;;;;;;;0.49;85.82;98231.03;5111750;28;20122;-69
2022/01/28 06:15:41;;;;;;;2.92;1.30;;;;;;;0.53;86.55;98234.91;5089709;28;20245;-70
2022/01/28 06:18:08;;;;;;;3.70;1.70;;;;;;;0.56;85.94;98234.44;5108747;28;20027;-70
2022/01/28 06:20:34;;;;;;;3.92;1.83;;;;;;;0.60;86.38;98232.91;5111069;28;20055;-70
2022/01/28 06:22:59;;;;;;;6.90;2.22;;;;;;;0.61;85.68;98239.13;5110918;28;20055;-70
2022/01/28 06:25:24;;;;;;;5.97;1.50;;;;;;;0.63;86.09;98242.41;5111004;28;20026;-70
2022/01/28 06:27:50;;;;;;;5.13;2.15;;;;;;;0.68;85.64;98253.31;5109975;28;20052;-71
2022/01/28 06:30:16;;;;;;;4.28;1.90;;;;;;;0.70;85.87;98254.72;5092232;28;20535;-70
2022/01/28 06:32:42;;;;;;;3.92;1.52;;;;;;;0.71;85.60;98248.28;5107576;28;20391;-71
2022/01/28 06:35:08;;;;;;;6.35;1.70;;;;;;;0.75;84.94;98254.00;5110284;28;20031;-70
2022/01/28 06:37:38;;;;;;;6.60;1.83;;;;;;;0.77;85.23;98257.28;5108994;28;20038;-70
2022/01/28 06:40:06;;;;;;;4.40;1.70;;;;;;;0.77;84.59;98267.28;5109745;28;20023;-70
2022/01/28 06:42:32;;;;;;;4.05;1.75;;;;;;;0.79;84.84;98255.19;5103782;27;20024;-70
2022/01/28 06:44:57;;;;;;;4.18;1.60;;;;;;;0.80;84.25;98258.72;5109405;28;20031;-69
2022/01/28 06:47:23;;;;;;;4.30;1.35;;;;;;;0.85;83.93;98254.22;5108286;28;20037;-71
2022/01/28 06:49:48;;;;;;;3.90;1.45;;;;;;;0.91;83.62;98265.94;5089015;28;20059;-70
2022/01/28 06:52:14;;;;;;;6.88;1.90;;;;;;;0.97;83.53;98277.69;5089077;28;20032;-69
2022/01/28 06:54:39;;;;;;;3.97;1.55;;;;;;;1.05;82.17;98266.50;5109406;28;20497;-70
2022/01/28 06:57:05;;;;;;;5.78;1.67;;;;;;;1.09;81.98;98275.78;5090314;28;20038;-70
2022/01/28 06:59:30;;;;;;;6.15;1.70;;;;;;;1.17;81.29;98282.69;5108391;28;20055;-70
2022/01/28 07:01:56;;;;;;;6.80;2.25;;;;;;;1.25;80.70;98276.91;5086886;28;20291;-70
2022/01/28 07:04:21;;;;;;;5.07;1.70;;;;;;;1.28;80.71;98286.41;5108582;28;20038;-70
2022/01/28 07:06:47;;;;;;;8.32;1.95;;;;;;;1.30;79.85;98285.09;5105478;28;20571;-72
2022/01/28 07:09:12;;;;;;;8.00;2.25;;;;;;;1.37;80.18;98295.78;5108682;28;20067;-72
2022/01/28 07:11:38;;;;;;;8.00;2.67;;;;;;;1.42;80.30;98300.47;5108804;28;20059;-72
2022/01/28 07:14:04;;;;;;;13.48;4.05;;;;;;;1.44;79.42;98299.16;5110098;28;20088;-71
2022/01/28 07:16:30;;;;;;;7.53;2.72;;;;;;;1.47;78.65;98297.88;5092908;28;20066;-72
2022/01/28 07:18:56;;;;;;;6.47;2.45;;;;;;;1.53;77.27;98304.19;5107022;28;20488;-70
2022/01/28 07:21:21;;;;;;;5.57;1.60;;;;;;;1.54;77.16;98305.81;5109136;28;20020;-70
2022/01/28 07:23:47;;;;;;;8.10;2.58;;;;;;;1.59;76.20;98303.22;5110263;28;20027;-71
2022/01/28 07:26:12;;;;;;;3.92;1.50;;;;;;;1.61;76.48;98303.81;5087964;28;20023;-69
2022/01/28 07:28:39;;;;;;;11.15;2.17;;;;;;;1.65;75.94;98310.38;5106461;28;20024;-70
2022/01/28 07:31:05;;;;;;;7.03;1.92;;;;;;;1.66;76.40;98313.88;5111064;28;20015;-70
2022/01/28 07:33:30;;;;;;;5.47;1.88;;;;;;;1.68;76.20;98306.34;5108901;28;20084;-71
2022/01/28 07:35:55;;;;;;;5.22;1.50;;;;;;;1.72;74.29;98308.34;5104497;28;20019;-71
2022/01/28 07:38:21;;;;;;;9.93;2.40;;;;;;;1.72;75.01;98307.50;5109277;28;20035;-72
2022/01/28 07:40:46;;;;;;;6.70;1.55;;;;;;;1.74;74.33;98310.78;5091299;28;20437;-71
2022/01/28 07:43:12;;;;;;;7.85;2.33;;;;;;;1.74;74.36;98302.69;5104301;28;20990;-72
2022/01/28 07:45:37;;;;;;;6.80;1.95;;;;;;;1.73;74.39;98299.19;5108507;28;20715;-71
2022/01/28 07:48:03;;;;;;;6.63;2.30;;;;;;;1.76;74.73;98316.78;5112064;28;20028;-71
2022/01/28 07:50:29;;;;;;;7.90;2.25;;;;;;;1.80;73.67;98311.72;5112875;28;20513;-70
2022/01/28 07:52:54;;;;;;;9.35;2.95;;;;;;;1.82;74.36;98315.81;5111963;28;20085;-72
2022/01/28 07:55:19;;;;;;;6.50;2.88;;;;;;;1.85;71.60;98300.97;5112800;28;20020;-72
2022/01/28 07:57:45;;;;;;;9.38;2.72;;;;;;;1.90;72.37;98325.41;5093830;28;20035;-70
2022/01/28 08:00:13;;;;;;;8.52;2.92;;;;;;;1.92;71.12;98301.66;5114445;27;20065;-69
2022/01/28 08:02:40;;;;;;;4.25;1.77;;;;;;;1.96;71.62;98321.75;5113155;28;20024;-72
2022/01/28 08:05:06;;;;;;;8.98;2.22;;;;;;;2.02;71.35;98314.56;5092257;28;20016;-71
2022/01/28 08:07:31;;;;;;;9.10;3.03;;;;;;;2.07;70.79;98318.16;5093620;28;20038;-73
2022/01/28 08:09:57;;;;;;;12.10;3.70;;;;;;;2.12;70.98;98328.25;5114274;27;20042;-72
2022/01/28 08:12:22;;;;;;;11.52;3.60;;;;;;;2.14;71.51;98319.91;5113107;27;20542;-72
2022/01/28 08:14:47;;;;;;;12.45;3.67;;;;;;;2.19;71.60;98319.97;5113194;27;20035;-72
2022/01/28 08:17:13;;;;;;;8.52;2.17;;;;;;;2.26;69.35;98328.75;5111310;27;20399;-73
2022/01/28 08:19:39;;;;;;;9.93;2.33;;;;;;;2.33;70.04;98321.28;5112049;28;20364;-71
2022/01/28 08:22:05;;;;;;;10.93;2.30;;;;;;;2.37;69.32;98337.88;5111071;28;20027;-71
2022/01/28 08:24:30;;;;;;;10.48;2.63;;;;;;;2.41;68.95;98354.44;5110919;28;20034;-70
2022/01/28 08:26:56;;;;;;;6.18;1.75;;;;;;;2.47;68.53;98339.91;5110611;27;20034;-68
2022/01/28 08:29:22;;;;;;;5.97;1.65;;;;;;;2.48;68.40;98345.06;5112187;27;20032;-69
2022/01/28 08:31:48;;;;;;;23.45;7.20;;;;;;;2.46;68.33;98344.50;5107869;28;20074;-69
2022/01/28 08:34:14;;;;;;;8.10;2.63;;;;;;;2.49;68.66;98343.19;5113481;27;20122;-69
2022/01/28 08:36:39;;;;;;;11.07;3.22;;;;;;;2.50;68.06;98352.97;5110977;28;20051;-71
2022/01/28 08:39:08;;;;;;;10.60;2.72;;;;;;;2.49;68.47;98340.50;5111056;28;20110;-70
2022/01/28 08:41:36;;;;;;;15.00;4.65;;;;;;;2.46;69.50;98349.91;5110266;28;20123;-69
2022/01/28 08:44:03;;;;;;;17.65;5.47;;;;;;;2.44;69.17;98359.34;5092804;28;20089;-69
2022/01/28 08:46:28;;;;;;;14.52;3.85;;;;;;;2.40;70.04;98363.63;5110466;28;20030;-71
2022/01/28 08:48:54;;;;;;;8.43;3.22;;;;;;;2.31;70.05;98385.66;5110125;28;20031;-71
2022/01/28 08:51:19;;;;;;;15.32;5.03;;;;;;;2.24;70.32;98382.31;5110680;27;20035;-69
2022/01/28 08:53:44;;;;;;;9.27;2.75;;;;;;;2.18;71.21;98369.75;5110067;28;20063;-69
2022/01/28 08:56:10;;;;;;;5.60;2.30;;;;;;;2.15;71.28;98398.09;5092111;28;20040;-69
2022/01/28 08:58:35;;;;;;;10.65;4.10;;;;;;;2.04;72.53;98391.69;5113075;27;20031;-69
2022/01/28 09:01:02;;;;;;;7.82;2.88;;;;;;;2.00;72.60;98390.53;5113350;27;20615;-70
2022/01/28 09:03:27;;;;;;;9.93;3.00;;;;;;;1.95;72.62;98395.84;5111140;27;20114;-68
2022/01/28 09:05:53;;;;;;;15.82;4.45;;;;;;;1.91;72.64;98411.75;5113325;27;20019;-68
2022/01/28 09:08:18;;;;;;;8.30;2.25;;;;;;;1.90;73.23;98403.84;5112780;27;20015;-68
2022/01/28 09:10:55;;;;;;;10.25;3.67;;;;;;;1.86;74.20;98408.94;5096158;28;20483;-69
2022/01/28 09:13:26;;;;;;;6.50;2.35;;;;;;;1.83;73.92;98412.13;5111344;28;20051;-68
2022/01/28 09:15:54;;;;;;;8.38;2.80;;;;;;;1.85;74.26;98409.16;5092079;28;20032;-68
2022/01/28 09:18:21;;;;;;;9.40;2.92;;;;;;;1.85;74.18;98417.25;5094883;27;20026;-68
2022/01/28 09:20:47;;;;;;;10.35;3.20;;;;;;;1.81;74.41;98416.94;5114755;27;20543;-68
2022/01/28 09:23:13;;;;;;;10.13;3.55;;;;;;;1.78;74.86;98426.38;5110065;27;20114;-69
2022/01/28 09:25:38;;;;;;;10.68;2.85;;;;;;;1.72;75.12;98440.00;5112175;28;20080;-69
2022/01/28 09:28:04;;;;;;;11.93;3.53;;;;;;;1.65;75.59;98434.72;5111284;27;20368;-68
2022/01/28 09:30:30;;;;;;;12.48;4.00;;;;;;;1.60;75.37;98426.50;5096244;27;20130;-68
2022/01/28 09:32:58;;;;;;;13.43;5.72;;;;;;;1.59;75.87;98439.22;5111595;27;20032;-69
2022/01/28 09:35:24;;;;;;;11.13;3.92;;;;;;;1.62;76.75;98437.91;5105621;27;20483;-68
2022/01/28 09:37:51;;;;;;;9.05;3.00;;;;;;;1.57;76.65;98445.91;5107675;28;20077;-69
2022/01/28 09:40:17;;;;;;;12.27;3.33;;;;;;;1.54;77.49;98440.97;5110526;27;20044;-69
2022/01/28 09:42:45;;;;;;;11.93;4.03;;;;;;;1.53;77.86;98453.69;5109924;28;20043;-68
2022/01/28 09:45:16;;;;;;;13.18;4.00;;;;;;;1.53;77.80;98448.28;5089705;28;20082;-68
2022/01/28 09:47:41;;;;;;;8.43;3.30;;;;;;;1.54;77.72;98451.78;5091472;27;20035;-70
2022/01/28 09:50:07;;;;;;;12.55;4.03;;;;;;;1.52;77.87;98446.63;5110694;27;20031;-71
2022/01/28 09:52:33;;;;;;;9.50;2.85;;;;;;;1.49;77.85;98457.91;5107694;28;20570;-71
2022/01/28 09:54:59;;;;;;;12.35;5.03;;;;;;;1.50;78.92;98459.56;5112856;27;20024;-72
2022/01/28 09:57:24;;;;;;;13.27;3.83;;;;;;;1.44;78.66;98466.72;5112502;27;20395;-70
2022/01/28 09:59:50;;;;;;;10.20;4.03;;;;;;;1.45;78.70;98462.97;5107681;28;20019;-68
2022/01/28 10:02:16;;;;;;;12.57;3.55;;;;;;;1.40;79.45;98472.84;5109832;28;20110;-71
2022/01/28 10:04:41;;;;;;;10.13;3.88;;;;;;;1.38;79.32;98461.44;5112723;27;20038;-71
2022/01/28 10:07:12;;;;;;;11.88;5.00;;;;;;;1.38;79.71;98472.25;5093002;28;20391;-71
2022/01/28 10:09:52;;;;;;;9.85;3.28;;;;;;;1.36;79.49;98475.22;5110783;28;20035;-71
2022/01/28 10:12:23;;;;;;;11.88;4.05;;;;;;;1.37;79.50;98481.41;5108184;28;20035;-71
2022/01/28 10:15:01;;;;;;;8.05;2.85;;;;;;;1.34;80.32;98475.44;5091089;28;20023;-69
2022/01/28 10:17:52;;;;;;;14.05;4.88;;;;;;;1.34;79.98;98485.44;5105080;28;20097;-69
2022/01/28 10:20:18;;;;;;;13.52;4.57;;;;;;;1.38;80.14;98483.06;5110191;27;20052;-69
2022/01/28 10:23:04;;;;;;;11.95;4.50;;;;;;;1.36;80.49;98482.47;5109937;28;20042;-70
2022/01/28 10:25:33;;;;;;;10.10;4.38;;;;;;;1.39;80.76;98484.72;5090583;28;20024;-70
2022/01/28 10:28:01;;;;;;;11.07;3.20;;;;;;;1.41;79.96;98485.31;5110262;28;20055;-70
2022/01/28 10:30:27;;;;;;;12.15;5.15;;;;;;;1.42;80.21;98478.84;5110993;28;20027;-70
2022/01/28 10:33:14;;;;;;;11.55;4.97;;;;;;;1.48;80.83;98472.50;5107315;28;20100;-69
2022/01/28 10:35:51;;;;;;;10.68;3.40;;;;;;;1.52;80.11;98484.47;5109141;27;20028;-68
2022/01/28 10:38:37;;;;;;;10.80;3.90;;;;;;;1.59;80.59;98487.03;5109533;28;20076;-70
2022/01/28 10:41:08;;;;;;;10.85;4.57;;;;;;;1.63;80.73;98490.91;5088270;28;20028;-69
2022/01/28 10:43:42;;;;;;;13.00;5.25;;;;;;;1.67;81.13;98494.81;5109250;28;20047;-69
2022/01/28 10:46:08;;;;;;;14.00;4.75;;;;;;;1.70;80.64;98505.16;5092343;28;20054;-70
2022/01/28 10:48:50;;;;;;;9.55;3.20;;;;;;;1.68;80.48;98499.16;5108547;28;20534;-71
2022/01/28 10:51:21;;;;;;;12.02;4.38;;;;;;;1.72;80.75;98503.03;5105804;28;20095;-69
2022/01/28 10:54:06;;;;;;;18.00;7.30;;;;;;;1.70;81.35;98497.03;5105478;28;20034;-70
2022/01/28 10:56:55;;;;;;;23.55;7.85;;;;;;;1.73;80.69;98512.78;5109847;27;20027;-70
2022/01/28 10:59:26;;;;;;;16.77;5.25;;;;;;;1.75;81.38;98496.31;5108350;28;20038;-71
2022/01/28 11:01:53;;;;;;;27.38;10.45;;;;;;;1.73;81.23;98509.25;5110251;28;20023;-70
2022/01/28 11:04:20;;;;;;;26.25;9.10;;;;;;;1.73;81.62;98509.25;5110258;28;20023;-70
2022/01/28 11:06:47;;;;;;;24.88;9.18;;;;;;;1.73;81.62;98518.19;5109702;28;20034;-70
2022/01/28 11:09:15;;;;;;;26.75;9.20;;;;;;;1.70;81.28;98517.81;5089067;28;20028;-70
2022/01/28 11:11:41;;;;;;;25.90;10.10;;;;;;;1.72;80.94;98505.72;5110623;28;20031;-70
2022/01/28 11:14:07;;;;;;;13.30;4.90;;;;;;;1.72;81.63;98523.81;5111064;28;20379;-70
2022/01/28 11:16:33;;;;;;;18.08;7.10;;;;;;;1.72;81.03;98524.66;5110760;28;20088;-70
2022/01/28 11:19:00;;;;;;;19.58;6.65;;;;;;;1.71;81.71;98528.41;5109811;28;20073;-70
2022/01/28 11:21:47;;;;;;;13.63;4.70;;;;;;;1.70;81.58;98526.78;5113536;28;20023;-70
2022/01/28 11:24:20;;;;;;;12.68;5.50;;;;;;;1.72;81.89;98527.38;5114712;28;20028;-70
2022/01/28 11:26:54;;;;;;;13.18;5.63;;;;;;;1.73;81.97;98539.00;5113928;28;20028;-70
2022/01/28 11:29:24;;;;;;;23.95;10.55;;;;;;;1.71;82.02;98541.94;5112549;28;20034;-70
2022/01/28 11:32:14;;;;;;;20.77;10.85;;;;;;;1.67;81.48;98535.34;5094714;28;20024;-71
2022/01/28 11:35:02;;;;;;;19.20;5.63;;;;;;;1.63;82.21;98542.28;5109550;27;20515;-73
2022/01/28 11:37:32;;;;;;;18.65;5.65;;;;;;;1.64;82.34;98539.34;5111776;28;20032;-71
2022/01/28 11:40:10;;;;;;;;;;;;;;;1.68;82.56;98547.81;5110292;27;20031;-73
2022/01/28 11:42:37;;;;;;;15.73;5.03;;;;;;;1.67;82.57;98543.47;5102303;27;19919;-71
2022/01/28 11:45:05;;;;;;;13.88;3.28;;;;;;;1.63;82.77;98566.63;5105534;27;20077;-71
2022/01/28 11:47:33;;;;;;;11.32;3.25;;;;;;;1.66;82.35;98549.94;5110261;27;20368;-70
2022/01/28 11:50:18;;;;;;;10.40;3.22;;;;;;;1.68;82.28;98545.13;5114450;28;20126;-69
2022/01/28 11:52:52;;;;;;;22.88;10.40;;;;;;;1.70;83.22;98561.94;5111911;28;20077;-71
2022/01/28 11:55:17;;;;;;;11.32;4.95;;;;;;;1.69;83.09;98548.63;5114048;28;20019;-68
2022/01/28 11:58:04;;;;;;;9.60;4.07;;;;;;;1.71;82.39;98558.16;5113443;28;20107;-67
2022/01/28 12:00:44;;;;;;;14.18;4.60;;;;;;;1.72;82.72;98576.03;5114020;28;20024;-68
2022/01/28 12:03:19;;;;;;;14.77;4.32;;;;;;;1.67;83.08;98575.91;5110192;28;20059;-68
2022/01/28 12:05:47;;;;;;;10.63;2.85;;;;;;;1.62;83.50;98564.97;5112740;28;20106;-67
2022/01/28 12:08:15;;;;;;;9.05;3.22;;;;;;;1.52;84.13;98583.66;5113232;28;20451;-68
2022/01/28 12:10:44;;;;;;;14.23;5.00;;;;;;;1.45;83.76;98589.19;5111093;28;20049;-68
2022/01/28 12:13:13;;;;;;;11.23;4.90;;;;;;;1.35;84.19;98592.47;5113580;28;20016;-67
2022/01/28 12:16:01;;;;;;;24.88;7.57;;;;;;;1.30;83.90;98601.25;5113121;28;20106;-69
2022/01/28 12:18:45;;;;;;;30.33;10.65;;;;;;;1.28;83.99;98610.66;5112356;28;20522;-69
2022/01/28 12:21:31;;;;;;;48.20;20.52;;;;;;;1.27;84.52;98603.59;5112994;28;20475;-69
2022/01/28 12:24:19;;;;;;;6.90;4.68;;;;;;;1.31;84.81;98615.59;5113386;28;20035;-69
2022/01/28 12:27:08;;;;;;;10.80;3.97;;;;;;;1.32;84.87;98618.06;5112750;28;20023;-69
2022/01/28 12:29:36;;;;;;;13.07;5.50;;;;;;;1.34;84.63;98624.06;5087548;28;20115;-69
2022/01/28 12:32:04;;;;;;;11.63;5.45;;;;;;;1.34;85.31;98625.94;5112654;28;20059;-70
2022/01/28 12:34:30;;;;;;;16.65;7.95;;;;;;;1.37;85.75;98640.88;5113753;28;20031;-69
2022/01/28 12:36:57;;;;;;;11.38;5.00;;;;;;;1.34;85.50;98623.25;5112588;27;20028;-68
2022/01/28 12:39:32;;;;;;;8.18;4.60;;;;;;;1.33;84.86;98637.81;5112685;28;20043;-68
2022/01/28 12:42:23;;;;;;;13.02;5.07;;;;;;;1.32;85.50;98639.69;5105085;27;20070;-70
2022/01/28 12:44:52;;;;;;;;;;;;;;;1.34;85.64;98642.16;5113306;28;20028;-69
2022/01/28 12:47:17;;;;;;;7.50;4.75;;;;;;;1.37;85.17;98649.81;5113306;28;19923;-69
2022/01/28 12:49:43;;;;;;;22.75;13.20;;;;;;;1.34;85.29;98647.56;5112683;28;20027;-70
2022/01/28 12:52:09;;;;;;;17.00;6.85;;;;;;;1.34;85.66;98642.97;5112964;28;20077;-68
2022/01/28 12:54:35;;;;;;;22.08;8.15;;;;;;;1.35;85.26;98646.50;5111835;27;20102;-69
2022/01/28 12:57:01;;;;;;;13.82;5.22;;;;;;;1.35;85.99;98657.31;5111567;28;20123;-68
2022/01/28 12:59:27;;;;;;;31.65;11.63;;;;;;;1.37;85.20;98657.91;5112446;28;20027;-72
2022/01/28 13:01:56;;;;;;;14.82;5.15;;;;;;;1.38;85.45;98662.28;5112104;27;20024;-69
2022/01/28 13:04:24;;;;;;;22.47;8.70;;;;;;;1.40;85.07;98656.63;5112046;28;20038;-70